createdAt,value
2023-05-12T00:00:02.553Z,101847.66
2023-05-12T00:02:38.302Z,101849.28
2023-05-12T00:05:05.591Z,101846.34
2023-05-12T00:07:32.012Z,101854.88
2023-05-12T00:09:58.432Z,101850.31
2023-05-12T00:12:24.883Z,101837.50
2023-05-12T00:14:51.277Z,101840.84
2023-05-12T00:17:17.759Z,101844.41
2023-05-12T00:19:44.229Z,101840.34
2023-05-12T00:22:11.594Z,101842.88
2023-05-12T00:24:39.720Z,101837.72
2023-05-12T00:27:07.301Z,101836.28
2023-05-12T00:29:34.443Z,101836.59
2023-05-12T00:32:01.155Z,101832.03
2023-05-12T00:34:28.266Z,101832.94
2023-05-12T00:36:54.795Z,101827.75
2023-05-12T00:39:21.469Z,101824.81
2023-05-12T00:41:50.098Z,101823.69
2023-05-12T00:44:18.426Z,101825.94
2023-05-12T00:46:45.102Z,101827.25
2023-05-12T00:49:12.855Z,101824.50
2023-05-12T00:51:40.118Z,101832.44
2023-05-12T00:54:06.678Z,101829.69
2023-05-12T00:56:39.179Z,101826.75
2023-05-12T00:59:08.140Z,101817.91
2023-05-12T01:01:37.815Z,101824.81
2023-05-12T01:04:04.630Z,101813.53
2023-05-12T01:06:55.432Z,101813.63
2023-05-12T01:09:22.115Z,101810.06
2023-05-12T01:11:48.694Z,101807.13
2023-05-12T01:14:15.753Z,101797.25
2023-05-12T01:16:52.675Z,101796.44
2023-05-12T01:19:49.599Z,101801.72
2023-05-12T01:22:17.544Z,101802.03
2023-05-12T01:25:02.568Z,101791.34
2023-05-12T01:27:31.405Z,101791.34
2023-05-12T01:30:00.377Z,101791.66
2023-05-12T01:32:27.634Z,101790.53
2023-05-12T01:34:54.154Z,101789.72
2023-05-12T01:37:21.381Z,101791.34
2023-05-12T01:39:48.194Z,101791.88
2023-05-12T01:42:18.675Z,101797.06
2023-05-12T01:44:45.387Z,101792.16
2023-05-12T01:47:15.359Z,101787.50
2023-05-12T01:49:45.838Z,101797.56
2023-05-12T01:52:14.712Z,101793.19
2023-05-12T01:54:41.325Z,101796.44
2023-05-12T01:57:08.085Z,101796.44
2023-05-12T01:59:36.914Z,101794.00
2023-05-12T02:02:05.177Z,101802.53
2023-05-12T02:04:31.673Z,101797.88
2023-05-12T02:06:59.815Z,101799.50
2023-05-12T02:09:26.672Z,101797.06
2023-05-12T02:11:57.233Z,101800.91
2023-05-12T02:14:23.699Z,101791.06
2023-05-12T02:16:52.708Z,101792.69
2023-05-12T02:19:21.017Z,101791.88
2023-05-12T02:21:48.630Z,101792.16
2023-05-12T02:24:16.528Z,101792.16
2023-05-12T02:26:43.719Z,101790.53
2023-05-12T02:29:11.861Z,101786.19
2023-05-12T02:31:38.967Z,101791.19
2023-05-12T02:34:14.889Z,101792.00
2023-05-12T02:36:41.595Z,101782.94
2023-05-12T02:39:08.161Z,101787.13
2023-05-12T02:41:35.353Z,101771.47
2023-05-12T02:44:01.987Z,101786.31
2023-05-12T02:46:28.455Z,101780.81
2023-05-12T02:48:55.379Z,101784.69
2023-05-12T02:51:21.875Z,101774.00
2023-05-12T02:53:48.370Z,101779.50
2023-05-12T02:56:15.172Z,101778.16
2023-05-12T02:58:41.922Z,101773.50
2023-05-12T03:01:11.244Z,101771.56
2023-05-12T03:03:39.314Z,101772.69
2023-05-12T03:06:06.609Z,101780.09
2023-05-12T03:08:33.290Z,101780.09
2023-05-12T03:10:59.984Z,101774.91
2023-05-12T03:13:26.493Z,101776.53
2023-05-12T03:15:52.977Z,101782.84
2023-05-12T03:18:19.705Z,101775.72
2023-05-12T03:20:46.950Z,101767.81
2023-05-12T03:23:15.037Z,101765.06
2023-05-12T03:25:41.486Z,101773.59
2023-05-12T03:28:07.941Z,101764.25
2023-05-12T03:30:34.495Z,101768.63
2023-05-12T03:33:01.041Z,101768.00
2023-05-12T03:35:27.776Z,101765.56
2023-05-12T03:37:54.368Z,101764.75
2023-05-12T03:40:21.154Z,101769.94
2023-05-12T03:42:48.002Z,101756.22
2023-05-12T03:45:14.468Z,101754.59
2023-05-12T03:47:41.191Z,101763.94
2023-05-12T03:50:08.555Z,101760.06
2023-05-12T03:52:38.182Z,101767.69
2023-05-12T03:55:06.783Z,101765.56
2023-05-12T03:57:34.481Z,101758.16
2023-05-12T04:00:01.032Z,101756.72
2023-05-12T04:02:28.022Z,101748.50
2023-05-12T04:04:54.620Z,101753.97
2023-05-12T04:07:21.554Z,101746.56
2023-05-12T04:09:47.998Z,101750.63
2023-05-12T04:12:14.585Z,101758.84
2023-05-12T04:14:43.109Z,101756.63
2023-05-12T04:17:10.872Z,101762.94
2023-05-12T04:19:37.342Z,101759.84
2023-05-12T04:22:05.008Z,101757.44
2023-05-12T04:24:31.474Z,101765.03
2023-05-12T04:26:58.306Z,101761.16
2023-05-12T04:29:25.229Z,101765.53
2023-05-12T04:31:51.754Z,101770.72
2023-05-12T04:34:18.245Z,101765.75
2023-05-12T04:36:44.695Z,101765.13
2023-05-12T04:39:11.415Z,101778.25
2023-05-12T04:41:37.908Z,101773.38
2023-05-12T04:44:05.078Z,101774.69
2023-05-12T04:46:32.695Z,101773.25
2023-05-12T04:49:00.142Z,101776.81
2023-05-12T04:51:26.700Z,101775.69
2023-05-12T04:53:53.197Z,101786.69
2023-05-12T04:56:22.069Z,101782.81
2023-05-12T04:58:48.565Z,101785.25
2023-05-12T05:01:15.134Z,101789.31
2023-05-12T05:03:41.780Z,101785.47
2023-05-12T05:06:08.453Z,101794.50
2023-05-12T05:08:34.982Z,101808.75
2023-05-12T05:11:02.964Z,101802.13
2023-05-12T05:13:31.226Z,101805.38
2023-05-12T05:15:57.798Z,101815.75
2023-05-12T05:18:25.406Z,101817.34
2023-05-12T05:20:58.436Z,101818.16
2023-05-12T05:23:26.316Z,101820.00
2023-05-12T05:25:53.322Z,101816.94
2023-05-12T05:28:19.793Z,101825.38
2023-05-12T05:30:46.415Z,101823.66
2023-05-12T05:33:14.026Z,101828.53
2023-05-12T05:35:41.914Z,101821.91
2023-05-12T05:38:09.676Z,101813.38
2023-05-12T05:40:49.298Z,101814.69
2023-05-12T05:43:19.136Z,101813.25
2023-05-12T05:45:45.856Z,101815.69
2023-05-12T05:48:13.641Z,101821.41
2023-05-12T05:50:40.172Z,101829.34
2023-05-12T05:53:06.865Z,101827.56
2023-05-12T05:55:33.491Z,101824.19
2023-05-12T05:58:00.739Z,101839.28
2023-05-12T06:00:27.315Z,101840.59
2023-05-12T06:02:55.827Z,101836.22
2023-05-12T06:05:22.762Z,101842.22
2023-05-12T06:07:49.546Z,101847.63
2023-05-12T06:10:15.994Z,101841.69
2023-05-12T06:12:43.217Z,101851.25
2023-05-12T06:15:10.219Z,101852.28
2023-05-12T06:17:36.768Z,101860.38
2023-05-12T06:20:05.181Z,101858.13
2023-05-12T06:22:31.685Z,101851.50
2023-05-12T06:25:00.321Z,101853.63
2023-05-12T06:27:26.746Z,101862.56
2023-05-12T06:29:53.414Z,101866.03
2023-05-12T06:32:19.894Z,101863.34
2023-05-12T06:34:46.430Z,101868.06
2023-05-12T06:37:12.894Z,101867.75
2023-05-12T06:39:39.384Z,101867.44
2023-05-12T06:42:06.141Z,101863.88
2023-05-12T06:44:42.011Z,101874.88
2023-05-12T06:47:09.320Z,101875.91
2023-05-12T06:49:37.052Z,101887.41
2023-05-12T06:52:04.809Z,101884.03
2023-05-12T06:54:32.996Z,101891.34
2023-05-12T06:57:00.025Z,101892.16
2023-05-12T06:59:27.583Z,101898.66
2023-05-12T07:01:55.594Z,101894.78
2023-05-12T07:04:25.092Z,101897.88
2023-05-12T07:06:53.395Z,101895.50
2023-05-12T07:09:20.137Z,101898.50
2023-05-12T07:11:47.004Z,101899.06
2023-05-12T07:14:13.572Z,101898.63
2023-05-12T07:16:39.983Z,101900.81
2023-05-12T07:19:08.981Z,101902.13
2023-05-12T07:21:37.117Z,101906.38
2023-05-12T07:24:03.901Z,101905.31
2023-05-12T07:26:30.707Z,101906.66
2023-05-12T07:28:57.377Z,101909.41
2023-05-12T07:31:23.982Z,101907.97
2023-05-12T07:33:50.679Z,101906.84
2023-05-12T07:36:20.683Z,101904.06
2023-05-12T07:38:48.868Z,101905.91
2023-05-12T07:41:17.389Z,101911.88
2023-05-12T07:43:43.834Z,101914.53
2023-05-12T07:46:10.375Z,101915.41
2023-05-12T07:48:39.856Z,101904.06
2023-05-12T07:51:07.863Z,101910.31
2023-05-12T07:53:34.774Z,101916.88
2023-05-12T07:56:01.775Z,101918.03
2023-05-12T07:58:28.528Z,101910.13
2023-05-12T08:01:00.480Z,101930.97
2023-05-12T08:03:27.060Z,101914.16
2023-05-12T08:05:53.696Z,101926.56
2023-05-12T08:08:21.142Z,101922.72
2023-05-12T08:10:47.634Z,101925.69
2023-05-12T08:13:14.222Z,101924.53
2023-05-12T08:15:40.896Z,101917.97
2023-05-12T08:18:10.464Z,101926.94
2023-05-12T08:20:39.741Z,101927.63
2023-05-12T08:23:06.152Z,101923.97
2023-05-12T08:25:34.851Z,101934.50
2023-05-12T08:28:01.417Z,101929.06
2023-05-12T08:30:28.053Z,101927.88
2023-05-12T08:32:56.187Z,101930.53
2023-05-12T08:35:24.903Z,101928.91
2023-05-12T08:37:51.408Z,101936.66
2023-05-12T08:40:22.341Z,101941.19
2023-05-12T08:43:23.862Z,101933.66
2023-05-12T08:45:50.935Z,101938.47
2023-05-12T08:48:19.814Z,101943.53
2023-05-12T08:50:49.709Z,101947.63
2023-05-12T08:53:18.800Z,101949.81
2023-05-12T08:56:01.162Z,101952.53
2023-05-12T08:58:41.760Z,101960.16
2023-05-12T09:01:12.061Z,101960.81
2023-05-12T09:03:38.915Z,101962.91
2023-05-12T09:06:06.602Z,101958.25
2023-05-12T09:08:34.814Z,101965.97
2023-05-12T09:11:02.020Z,101955.25
2023-05-12T09:13:35.375Z,101953.69
2023-05-12T09:16:04.376Z,101961.44
2023-05-12T09:18:52.587Z,101967.19
2023-05-12T09:21:20.602Z,101974.16
2023-05-12T09:23:54.230Z,101971.38
2023-05-12T09:26:22.558Z,101969.69
2023-05-12T09:28:53.819Z,101973.78
2023-05-12T09:31:24.431Z,101975.69
2023-05-12T09:33:52.232Z,101983.22
2023-05-12T09:36:21.199Z,101984.16
2023-05-12T09:38:59.787Z,101983.25
2023-05-12T09:41:26.302Z,101983.06
2023-05-12T09:43:53.522Z,101992.31
2023-05-12T09:46:20.263Z,101989.09
2023-05-12T09:48:48.126Z,101998.69
2023-05-12T09:51:21.146Z,101995.31
2023-05-12T09:53:47.587Z,101997.75
2023-05-12T09:56:14.422Z,101993.34
2023-05-12T09:58:48.617Z,101999.38
2023-05-12T10:01:23.288Z,101993.75
2023-05-12T10:03:55.672Z,101984.91
2023-05-12T10:06:32.212Z,101989.34
2023-05-12T10:09:23.861Z,102000.88
2023-05-12T10:11:53.772Z,101990.75
2023-05-12T10:14:26.037Z,102001.03
2023-05-12T10:16:53.447Z,102000.72
2023-05-12T10:19:20.597Z,101992.63
2023-05-12T10:21:47.239Z,101984.81
2023-05-12T10:24:17.181Z,101994.53
2023-05-12T10:26:44.687Z,101987.13
2023-05-12T10:29:12.725Z,101986.00
2023-05-12T10:31:39.762Z,101988.94
2023-05-12T10:34:06.938Z,101986.56
2023-05-12T10:36:46.135Z,101990.63
2023-05-12T10:39:15.490Z,101998.19
2023-05-12T10:41:45.565Z,101976.19
2023-05-12T10:44:15.397Z,101987.16
2023-05-12T10:46:42.222Z,101981.69
2023-05-12T10:49:10.464Z,101996.81
2023-05-12T10:51:43.183Z,101994.81
2023-05-12T10:54:14.880Z,101991.03
2023-05-12T10:56:45.130Z,101989.16
2023-05-12T10:59:20.155Z,101995.00
2023-05-12T11:02:13.612Z,101995.09
2023-05-12T11:04:53.126Z,101997.06
2023-05-12T11:07:24.206Z,101991.78
2023-05-12T11:09:58.565Z,101990.00
2023-05-12T11:12:32.201Z,101993.66
2023-05-12T11:15:03.278Z,101997.06
2023-05-12T11:17:29.983Z,101993.72
2023-05-12T11:19:56.713Z,101996.03
2023-05-12T11:22:23.780Z,101999.88
2023-05-12T11:24:52.465Z,102001.66
2023-05-12T11:27:21.144Z,102008.69
2023-05-12T11:29:59.551Z,102001.44
2023-05-12T11:32:26.401Z,102010.31
2023-05-12T11:34:53.257Z,102006.53
2023-05-12T11:37:21.127Z,102005.50
2023-05-12T11:39:48.288Z,102000.19
2023-05-12T11:42:16.265Z,102006.81
2023-05-12T11:44:49.846Z,102003.09
2023-05-12T11:47:18.937Z,102006.72
2023-05-12T11:49:54.360Z,102008.81
2023-05-12T11:52:22.624Z,102008.00
2023-05-12T11:54:51.475Z,102002.53
2023-05-12T11:57:34.400Z,102006.56
2023-05-12T12:00:06.873Z,101999.81
2023-05-12T12:02:33.878Z,102000.22
2023-05-12T12:05:00.660Z,102005.41
2023-05-12T12:07:34.174Z,102010.22
2023-05-12T12:10:17.802Z,102005.72
2023-05-12T12:12:45.274Z,102001.88
2023-05-12T12:15:14.515Z,102003.41
2023-05-12T12:17:41.162Z,102003.66
2023-05-12T12:20:09.134Z,102008.47
2023-05-12T12:22:35.957Z,102006.50
2023-05-12T12:25:03.688Z,102000.97
2023-05-12T12:27:30.657Z,102012.16
2023-05-12T12:29:57.261Z,102007.44
2023-05-12T12:32:23.897Z,102012.94
2023-05-12T12:34:50.433Z,102006.03
2023-05-12T12:37:17.213Z,102007.69
2023-05-12T12:39:43.893Z,102015.69
2023-05-12T12:42:10.311Z,102008.72
2023-05-12T12:44:36.691Z,102013.81
2023-05-12T12:47:03.624Z,102015.41
2023-05-12T12:49:30.125Z,102017.47
2023-05-12T12:51:56.602Z,102016.75
2023-05-12T12:54:25.134Z,102012.41
2023-05-12T12:56:51.598Z,102015.53
2023-05-12T12:59:18.032Z,102014.03
2023-05-12T13:01:44.473Z,102012.41
2023-05-12T13:04:10.982Z,102015.69
2023-05-12T13:06:37.833Z,102018.84
2023-05-12T13:09:04.342Z,102018.06
2023-05-12T13:11:30.915Z,102014.00
2023-05-12T13:13:59.345Z,102014.84
2023-05-12T13:16:25.880Z,102015.69
2023-05-12T13:18:52.498Z,102012.56
2023-05-12T13:21:19.106Z,102004.06
2023-05-12T13:23:45.673Z,102005.69
2023-05-12T13:26:12.521Z,102012.47
2023-05-12T13:28:38.971Z,102005.72
2023-05-12T13:31:06.172Z,102009.91
2023-05-12T13:33:32.816Z,101999.25
2023-05-12T13:36:00.359Z,101999.72
2023-05-12T13:38:26.991Z,101995.69
2023-05-12T13:40:53.527Z,101994.19
2023-05-12T13:43:20.017Z,102006.56
2023-05-12T13:45:46.760Z,102002.47
2023-05-12T13:48:13.778Z,102008.88
2023-05-12T13:50:40.322Z,101999.41
2023-05-12T13:53:06.717Z,101995.75
2023-05-12T13:55:34.364Z,102011.63
2023-05-12T13:58:00.837Z,102002.09
2023-05-12T14:00:29.734Z,101993.50
2023-05-12T14:02:57.934Z,101995.34
2023-05-12T14:05:24.943Z,101995.91
2023-05-12T14:07:51.403Z,101999.94
2023-05-12T14:10:18.603Z,101995.47
2023-05-12T14:12:45.395Z,102005.38
2023-05-12T14:17:46.293Z,101995.03
2023-05-12T14:20:12.943Z,101995.59
2023-05-12T14:22:39.501Z,102002.63
2023-05-12T14:25:06.494Z,101999.41
2023-05-12T14:27:33.014Z,101995.31
2023-05-12T14:30:00.720Z,101998.38
2023-05-12T14:32:27.356Z,101997.72
2023-05-12T14:34:53.909Z,101994.34
2023-05-12T14:37:20.353Z,102000.34
2023-05-12T14:39:46.976Z,101989.06
2023-05-12T14:42:14.898Z,101988.41
2023-05-12T14:44:41.335Z,101990.16
2023-05-12T14:47:09.053Z,101994.88
2023-05-12T14:49:35.735Z,101999.00
2023-05-12T14:52:02.654Z,101993.16
2023-05-12T14:54:29.194Z,101992.41
2023-05-12T14:56:56.437Z,101980.50
2023-05-12T14:59:22.951Z,101987.69
2023-05-12T15:01:49.494Z,101986.22
2023-05-12T15:04:15.986Z,101987.44
2023-05-12T15:06:42.668Z,101983.75
2023-05-12T15:09:09.640Z,101993.56
2023-05-12T15:11:36.929Z,101993.44
2023-05-12T15:14:04.620Z,101990.97
2023-05-12T15:16:32.782Z,101987.50
2023-05-12T15:19:00.057Z,101985.09
2023-05-12T15:21:26.613Z,101985.59
2023-05-12T15:23:53.134Z,101986.31
2023-05-12T15:28:49.110Z,101988.13
2023-05-12T15:31:15.671Z,101982.97
2023-05-12T15:33:42.271Z,101984.19
2023-05-12T15:36:11.244Z,101977.84
2023-05-12T15:38:37.848Z,101989.84
2023-05-12T15:41:04.438Z,101987.31
2023-05-12T15:43:30.967Z,101996.44
2023-05-12T15:45:57.472Z,102018.25
2023-05-12T15:48:24.011Z,102031.53
2023-05-12T15:50:51.110Z,102059.53
2023-05-12T15:53:17.570Z,102070.03
2023-05-12T15:55:44.208Z,102058.84
2023-05-12T15:58:13.164Z,102056.88
2023-05-12T16:00:40.311Z,102034.78
2023-05-12T16:03:06.987Z,102026.13
2023-05-12T16:05:37.742Z,102018.47
2023-05-12T16:08:04.244Z,102017.09
2023-05-12T16:10:30.735Z,102015.88
2023-05-12T16:12:57.237Z,102017.69
2023-05-12T16:15:23.725Z,102019.31
2023-05-12T16:17:50.315Z,102031.75
2023-05-12T16:20:16.838Z,102030.44
2023-05-12T16:22:43.328Z,102016.94
2023-05-12T16:25:09.913Z,102021.34
2023-05-12T16:27:36.768Z,102025.03
2023-05-12T16:30:03.901Z,102025.47
2023-05-12T16:32:30.431Z,102029.97
2023-05-12T16:34:57.273Z,102022.09
2023-05-12T16:37:23.871Z,102023.88
2023-05-12T16:39:50.828Z,102013.66
2023-05-12T16:42:17.359Z,102024.63
2023-05-12T16:44:43.789Z,102014.66
2023-05-12T16:47:10.339Z,102024.38
2023-05-12T16:49:36.833Z,102017.75
2023-05-12T16:52:03.540Z,102026.72
2023-05-12T16:54:32.874Z,102020.94
2023-05-12T16:57:02.047Z,102023.72
2023-05-12T16:59:29.171Z,102021.66
2023-05-12T17:01:55.787Z,102027.31
2023-05-12T17:04:22.305Z,102030.25
2023-05-12T17:06:51.109Z,102030.91
2023-05-12T17:09:18.090Z,102037.06
2023-05-12T17:11:45.504Z,102028.63
2023-05-12T17:14:12.441Z,102031.75
2023-05-12T17:16:40.039Z,102033.63
2023-05-12T17:21:36.070Z,102034.63
2023-05-12T17:24:02.811Z,102031.41
2023-05-12T17:26:29.421Z,102035.59
2023-05-12T17:28:56.025Z,102035.13
2023-05-12T17:31:22.906Z,102030.28
2023-05-12T17:33:49.464Z,102044.97
2023-05-12T17:36:18.443Z,102041.75
2023-05-12T17:38:45.282Z,102044.78
2023-05-12T17:41:11.937Z,102049.97
2023-05-12T17:43:39.494Z,102047.19
2023-05-12T17:46:07.591Z,102034.00
2023-05-12T17:48:34.118Z,102051.41
2023-05-12T17:51:01.534Z,102047.09
2023-05-12T17:53:28.036Z,102054.03
2023-05-12T17:55:57.368Z,102051.72
2023-05-12T17:58:25.433Z,102056.81
2023-05-12T18:00:52.547Z,102061.22
2023-05-12T18:03:23.680Z,102064.09
2023-05-12T18:05:51.326Z,102058.28
2023-05-12T18:08:18.111Z,102061.97
2023-05-12T18:10:44.922Z,102058.50
2023-05-12T18:13:11.383Z,102069.72
2023-05-12T18:15:38.246Z,102072.84
2023-05-12T18:18:05.139Z,102064.97
2023-05-12T18:20:31.679Z,102068.56
2023-05-12T18:22:58.392Z,102078.78
2023-05-12T18:25:24.866Z,102076.00
2023-05-12T18:27:52.084Z,102075.88
2023-05-12T18:30:18.829Z,102078.09
2023-05-12T18:32:45.260Z,102079.03
2023-05-12T18:35:11.703Z,102080.44
2023-05-12T18:37:38.561Z,102086.16
2023-05-12T18:40:06.870Z,102085.84
2023-05-12T18:42:34.328Z,102092.56
2023-05-12T18:45:00.791Z,102096.03
2023-05-12T18:47:27.313Z,102095.31
2023-05-12T18:49:53.949Z,102098.81
2023-05-12T18:52:21.234Z,102102.53
2023-05-12T18:54:49.409Z,102101.47
2023-05-12T18:57:16.428Z,102103.44
2023-05-12T18:59:42.987Z,102104.50
2023-05-12T19:02:09.701Z,102111.78
2023-05-12T19:04:36.709Z,102114.22
2023-05-12T19:07:03.787Z,102115.47
2023-05-12T19:09:30.228Z,102119.03
2023-05-12T19:11:56.682Z,102124.47
2023-05-12T19:14:23.258Z,102133.84
2023-05-12T19:16:49.740Z,102121.19
2023-05-12T19:19:16.256Z,102130.88
2023-05-12T19:21:42.842Z,102126.19
2023-05-12T19:24:10.549Z,102128.50
2023-05-12T19:26:37.414Z,102138.34
2023-05-12T19:29:04.443Z,102140.66
2023-05-12T19:31:31.107Z,102150.47
2023-05-12T19:33:58.886Z,102152.03
2023-05-12T19:36:25.450Z,102157.78
2023-05-12T19:38:52.006Z,102156.25
2023-05-12T19:41:18.534Z,102159.22
2023-05-12T19:43:45.036Z,102152.59
2023-05-12T19:46:11.574Z,102154.88
2023-05-12T19:48:38.547Z,102165.03
2023-05-12T19:51:04.989Z,102165.03
2023-05-12T19:53:31.481Z,102170.63
2023-05-12T19:55:57.950Z,102177.06
2023-05-12T19:58:26.802Z,102179.19
2023-05-12T20:00:54.489Z,102177.28
2023-05-12T20:03:21.435Z,102180.25
2023-05-12T20:05:48.656Z,102175.53
2023-05-12T20:08:15.219Z,102184.97
2023-05-12T20:10:41.681Z,102182.69
2023-05-12T20:13:08.089Z,102183.03
2023-05-12T20:15:34.735Z,102182.22
2023-05-12T20:18:01.332Z,102192.34
2023-05-12T20:20:27.951Z,102194.66
2023-05-12T20:22:54.417Z,102189.91
2023-05-12T20:25:21.156Z,102195.31
2023-05-12T20:27:48.154Z,102190.91
2023-05-12T20:30:14.724Z,102197.94
2023-05-12T20:32:41.224Z,102190.75
2023-05-12T20:35:08.207Z,102191.75
2023-05-12T20:37:34.932Z,102197.66
2023-05-12T20:40:55.151Z,102205.00
2023-05-12T20:43:22.693Z,102205.69
2023-05-12T20:45:49.257Z,102211.88
2023-05-12T20:48:15.772Z,102208.78
2023-05-12T20:50:43.051Z,102214.97
2023-05-12T20:53:09.540Z,102215.63
2023-05-12T20:55:36.031Z,102206.81
2023-05-12T20:58:02.513Z,102216.59
2023-05-12T21:00:29.023Z,102216.44
2023-05-12T21:02:55.857Z,102220.84
2023-05-12T21:05:22.661Z,102220.34
2023-05-12T21:07:56.777Z,102226.38
2023-05-12T21:10:23.522Z,102225.56
2023-05-12T21:12:50.693Z,102225.75
2023-05-12T21:15:17.103Z,102224.94
2023-05-12T21:17:43.536Z,102222.50
2023-05-12T21:20:11.849Z,102234.69
2023-05-12T21:22:40.509Z,102232.59
2023-05-12T21:25:07.397Z,102235.56
2023-05-12T21:27:34.470Z,102232.31
2023-05-12T21:30:00.856Z,102236.84
2023-05-12T21:32:27.651Z,102233.59
2023-05-12T21:34:54.271Z,102244.66
2023-05-12T21:37:20.775Z,102243.53
2023-05-12T21:39:47.224Z,102246.47
2023-05-12T21:42:13.794Z,102245.16
2023-05-12T21:44:40.304Z,102253.78
2023-05-12T21:47:07.659Z,102251.19
2023-05-12T21:49:35.409Z,102253.94
2023-05-12T21:52:02.215Z,102250.69
2023-05-12T21:54:31.946Z,102250.84
2023-05-12T21:56:58.397Z,102251.97
2023-05-12T21:59:25.071Z,102254.63
2023-05-12T22:01:51.603Z,102253.00
2023-05-12T22:04:18.129Z,102258.16
2023-05-12T22:06:44.583Z,102250.81
2023-05-12T22:09:13.519Z,102258.31
2023-05-12T22:11:39.984Z,102257.00
2023-05-12T22:14:06.392Z,102257.81
2023-05-12T22:16:41.360Z,102261.72
2023-05-12T22:19:08.999Z,102254.38
2023-05-12T22:21:35.590Z,102259.91
2023-05-12T22:24:02.121Z,102263.81
2023-05-12T22:26:28.631Z,102263.81
2023-05-12T22:28:55.107Z,102265.13
2023-05-12T22:31:21.625Z,102268.53
2023-05-12T22:33:48.212Z,102269.34
2023-05-12T22:36:15.336Z,102263.66
2023-05-12T22:38:41.803Z,102271.63
2023-05-12T22:41:08.236Z,102269.66
2023-05-12T22:43:34.654Z,102271.63
2023-05-12T22:46:01.178Z,102279.91
2023-05-12T22:48:27.629Z,102276.16
2023-05-12T22:50:54.529Z,102275.22
2023-05-12T22:53:21.075Z,102281.56
2023-05-12T22:55:47.569Z,102271.28
2023-05-12T22:58:14.304Z,102273.59
2023-05-12T23:00:40.809Z,102276.34
2023-05-12T23:03:07.407Z,102276.66
2023-05-12T23:05:34.022Z,102277.47
2023-05-12T23:08:02.750Z,102282.84
2023-05-12T23:10:29.697Z,102285.44
2023-05-12T23:12:56.279Z,102285.44
2023-05-12T23:15:22.781Z,102285.09
2023-05-12T23:17:49.268Z,102277.94
2023-05-12T23:20:15.837Z,102276.63
2023-05-12T23:22:42.308Z,102281.66
2023-05-12T23:25:09.542Z,102282.13
2023-05-12T23:27:36.799Z,102278.88
2023-05-12T23:30:03.453Z,102276.63
2023-05-12T23:32:30.076Z,102276.44
2023-05-12T23:34:56.605Z,102271.56
2023-05-12T23:37:24.509Z,102270.56
2023-05-12T23:39:51.180Z,102265.69
2023-05-12T23:42:17.756Z,102274.13
2023-05-12T23:44:44.231Z,102273.47
2023-05-12T23:47:10.729Z,102270.50
2023-05-12T23:49:37.230Z,102276.69
2023-05-12T23:52:03.966Z,102272.78
2023-05-12T23:54:30.814Z,102262.06
2023-05-12T23:56:57.351Z,102264.81
2023-05-12T23:59:23.806Z,102267.41
